Airfield :
LOGIN :

Register | Disclaimer

   EN    FR    IT 

 










Legend :    VFR   Marginal VFR   IFR   Intensive IFR   Very Intensive IFR
Visi :
Ceiling :
>= 8 km
>= 3000ft
5 to 8 km
1000 to 3000 ft
1500m to 5 km
500 to 1000 ft
800 to 1500m
200 to 500 ft
< 800m
< 200 ft
Symbols :   Thunderstorms  Fog  Heavy snow  Heavy precipitations  Wind > 20 kt
SIGMETs :     Misc.  Thunderstorms  Icing  Turbulence  Mountain Waves  Volcanic Ashes






- Airport Elevation : 38 ft
- IATA code : BOH


EGHH - Bournemouth

CURRENT METAR :
  • 161050Z 07005KT 360V110 9999 SCT025 BKN045 10/M01 Q1031

EXPIRED METARs :
  • 161020Z 11009KT 020V180 9999 SCT025 10/M02 Q1031
  • 160950Z 05008KT 010V100 9999 SCT025 10/M02 Q1031
  • 160920Z 07006KT 350V120 9999 FEW025 09/00 Q1031
  • 160850Z 04006KT 360V090 9999 FEW022 08/00 Q1031
  • 160820Z 04006KT 350V070 9999 FEW022 07/02 Q1031
  • 160750Z 06005KT 350V070 CAVOK 06/03 Q1031

TAF TAF EGHH
Valid from the 16 at 09:00 until the 16 at 18:00 UTC


160754Z 1609/1618 VRB03KT 9999 FEW030
BECMG 1610/1613 18010KT
BECMG 1615/1618 VRB03KT
ATIS : +44 1202 364 151
Met : +44 1202 364 158 (TAF)



MET'MAP, your aeronautical weather chart ! - Copyright ORBIFLY December 2007 - Disclaimer

ORBIFLY MET'MAP TEAM :

Programming & Development : Alexandra Zaïnal
Concept & original design : Baudouin d'Aumeries
Assistance for programming : Marc-Olivier Méhu
Technical & hardware support : Manuel Goepfert

Contact : metmap@orbifly.com




SOURCES & CREDITS :

   NOAA